createdAt,value
2019-01-26T00:01:47.623Z,99481.67
2019-01-26T00:04:17.798Z,99481.53
2019-01-26T00:06:47.537Z,99475.58
2019-01-26T00:09:17.132Z,99475.16
2019-01-26T00:11:46.861Z,99457.22
2019-01-26T00:14:16.248Z,99460.75
2019-01-26T00:16:45.632Z,99455.98
2019-01-26T00:19:15.816Z,99460.01
2019-01-26T00:21:45.387Z,99457.23
2019-01-26T00:24:14.345Z,99456.44
2019-01-26T00:26:43.280Z,99458.47
2019-01-26T00:29:13.657Z,99463.08
2019-01-26T00:31:43.018Z,99458.34
2019-01-26T00:34:12.689Z,99459.34
2019-01-26T00:36:41.691Z,99458.98
2019-01-26T00:39:11.431Z,99448.31
2019-01-26T00:41:40.310Z,99442.75
2019-01-26T00:44:10.411Z,99433.65
2019-01-26T00:46:40.159Z,99438.33
2019-01-26T00:49:09.519Z,99445.41
2019-01-26T00:51:39.537Z,99436.94
2019-01-26T00:54:10.186Z,99431.51
2019-01-26T00:56:39.876Z,99430.39
2019-01-26T00:59:09.577Z,99437.61
2019-01-26T01:01:38.847Z,99431.24
2019-01-26T01:04:08.394Z,99424.67
2019-01-26T01:06:38.042Z,99426.30
2019-01-26T01:09:09.781Z,99431.84
2019-01-26T01:11:39.759Z,99424.10
2019-01-26T01:14:09.281Z,99428.52
2019-01-26T01:16:39.001Z,99431.95
2019-01-26T01:19:08.741Z,99433.19
2019-01-26T01:21:38.483Z,99430.05
2019-01-26T01:24:07.754Z,99425.21
2019-01-26T01:26:36.673Z,99425.53
2019-01-26T01:29:06.366Z,99423.07
2019-01-26T01:31:35.896Z,99417.65
2019-01-26T01:34:07.488Z,99410.05
2019-01-26T01:36:39.868Z,99422.39
2019-01-26T01:39:12.295Z,99426.55
2019-01-26T01:41:44.442Z,99416.93
2019-01-26T01:44:14.119Z,99417.04
2019-01-26T01:46:43.629Z,99408.64
2019-01-26T01:49:13.232Z,99412.20
2019-01-26T01:51:42.962Z,99410.30
2019-01-26T01:54:15.234Z,99411.10
2019-01-26T01:56:46.114Z,99399.80
2019-01-26T01:59:34.339Z,99405.44
2019-01-26T02:02:02.978Z,99398.28
2019-01-26T02:04:32.523Z,99399.08
2019-01-26T02:07:01.145Z,99391.29
2019-01-26T02:09:29.709Z,99397.98
2019-01-26T02:11:58.621Z,99391.33
2019-01-26T02:14:27.193Z,99399.20
2019-01-26T02:16:56.476Z,99395.55
2019-01-26T02:19:25.113Z,99395.65
2019-01-26T02:21:54.681Z,99399.20
2019-01-26T02:24:23.209Z,99399.20
2019-01-26T02:26:51.754Z,99392.72
2019-01-26T02:29:20.664Z,99391.61
2019-01-26T02:31:50.210Z,99390.60
2019-01-26T02:34:19.765Z,99390.98
2019-01-26T02:36:48.973Z,99390.69
2019-01-26T02:39:17.581Z,99384.83
2019-01-26T02:41:46.844Z,99390.50
2019-01-26T02:44:16.254Z,99397.25
2019-01-26T02:46:45.467Z,99384.42
2019-01-26T02:49:14.391Z,99386.32
2019-01-26T02:51:44.040Z,99385.14
2019-01-26T02:54:12.981Z,99387.95
2019-01-26T02:56:42.225Z,99385.84
2019-01-26T02:59:11.528Z,99385.73
2019-01-26T03:01:40.457Z,99387.56
2019-01-26T03:04:09.650Z,99391.20
2019-01-26T03:06:38.876Z,99389.16
2019-01-26T03:09:09.331Z,99385.83
2019-01-26T03:11:37.866Z,99385.61
2019-01-26T03:14:06.408Z,99380.25
2019-01-26T03:16:34.973Z,99384.09
2019-01-26T03:19:03.517Z,99378.20
2019-01-26T03:21:32.781Z,99375.27
2019-01-26T03:24:01.349Z,99371.25
2019-01-26T03:26:30.571Z,99375.98
2019-01-26T03:28:59.103Z,99375.45
2019-01-26T03:31:27.679Z,99377.77
2019-01-26T03:33:56.252Z,99372.30
2019-01-26T03:36:24.788Z,99375.86
2019-01-26T03:38:54.735Z,99383.54
2019-01-26T03:41:23.381Z,99380.50
2019-01-26T03:43:51.923Z,99372.80
2019-01-26T03:46:20.462Z,99373.29
2019-01-26T03:48:49.039Z,99370.55
2019-01-26T03:51:17.575Z,99372.70
2019-01-26T03:53:46.110Z,99370.31
2019-01-26T03:56:14.698Z,99369.19
2019-01-26T03:58:43.289Z,99354.08
2019-01-26T04:01:11.826Z,99359.86
2019-01-26T04:03:40.395Z,99354.08
2019-01-26T04:06:09.002Z,99363.58
2019-01-26T04:08:37.550Z,99349.81
2019-01-26T04:11:06.123Z,99344.17
2019-01-26T04:13:34.671Z,99345.77
2019-01-26T04:16:03.257Z,99346.66
2019-01-26T04:18:31.808Z,99346.38
2019-01-26T04:21:00.350Z,99345.33
2019-01-26T04:23:28.911Z,99335.31
2019-01-26T04:25:57.455Z,99333.13
2019-01-26T04:28:26.034Z,99335.61
2019-01-26T04:30:54.574Z,99341.72
2019-01-26T04:33:23.121Z,99325.92
2019-01-26T04:35:51.704Z,99333.73
2019-01-26T04:38:20.252Z,99333.35
2019-01-26T04:40:49.146Z,99335.04
2019-01-26T04:43:17.714Z,99331.27
2019-01-26T04:45:46.297Z,99332.11
2019-01-26T04:48:14.835Z,99330.48
2019-01-26T04:50:43.461Z,99337.74
2019-01-26T04:53:12.044Z,99333.31
2019-01-26T04:55:40.582Z,99330.09
2019-01-26T04:58:09.130Z,99326.95
2019-01-26T05:00:37.709Z,99318.77
2019-01-26T05:03:06.285Z,99326.23
2019-01-26T05:05:34.891Z,99323.91
2019-01-26T05:08:03.445Z,99325.70
2019-01-26T05:10:31.982Z,99321.38
2019-01-26T05:13:00.542Z,99318.76
2019-01-26T05:15:29.109Z,99321.08
2019-01-26T05:17:57.673Z,99321.59
2019-01-26T05:20:26.560Z,99314.02
2019-01-26T05:22:55.143Z,99313.43
2019-01-26T05:25:23.688Z,99317.14
2019-01-26T05:27:52.217Z,99311.09
2019-01-26T05:30:23.001Z,99306.63
2019-01-26T05:32:51.576Z,99304.31
2019-01-26T05:35:20.131Z,99305.52
2019-01-26T05:37:48.683Z,99299.26
2019-01-26T05:40:17.328Z,99301.09
2019-01-26T05:42:45.876Z,99287.83
2019-01-26T05:45:17.368Z,99288.85
2019-01-26T05:47:48.594Z,99288.01
2019-01-26T05:50:20.137Z,99297.09
2019-01-26T05:52:48.746Z,99285.31
2019-01-26T05:55:18.349Z,99288.58
2019-01-26T05:57:47.575Z,99282.89
2019-01-26T06:00:21.670Z,99281.98
2019-01-26T06:02:50.584Z,99275.16
2019-01-26T06:05:19.243Z,99277.22
2019-01-26T06:07:50.022Z,99268.59
2019-01-26T06:10:18.762Z,99273.47
2019-01-26T06:12:47.331Z,99269.83
2019-01-26T06:15:16.043Z,99259.70
2019-01-26T06:17:44.613Z,99251.72
2019-01-26T06:20:13.311Z,99249.04
2019-01-26T06:22:41.961Z,99240.88
2019-01-26T06:25:12.522Z,99234.94
2019-01-26T06:27:41.019Z,99236.47
2019-01-26T06:30:13.193Z,99227.38
2019-01-26T06:32:41.765Z,99227.11
2019-01-26T06:35:10.303Z,99227.02
2019-01-26T06:37:39.225Z,99222.66
2019-01-26T06:40:10.717Z,99205.11
2019-01-26T06:42:39.568Z,99202.68
2019-01-26T06:45:09.760Z,99203.19
2019-01-26T06:47:39.023Z,99212.55
2019-01-26T06:50:10.894Z,99211.55
2019-01-26T06:52:39.464Z,99205.62
2019-01-26T06:55:09.627Z,99210.89
2019-01-26T06:57:38.189Z,99207.22
2019-01-26T07:00:09.941Z,99208.63
2019-01-26T07:02:39.134Z,99205.31
2019-01-26T07:05:30.665Z,99209.73
2019-01-26T07:07:59.632Z,99199.31
2019-01-26T07:10:28.602Z,99207.28
2019-01-26T07:13:11.731Z,99201.74
2019-01-26T07:15:39.933Z,99195.16
2019-01-26T07:18:09.518Z,99203.86
2019-01-26T07:20:38.451Z,99213.25
2019-01-26T07:23:07.795Z,99216.91
2019-01-26T07:25:37.159Z,99220.41
2019-01-26T07:28:06.013Z,99215.28
2019-01-26T07:30:34.907Z,99219.09
2019-01-26T07:33:03.485Z,99225.09
2019-01-26T07:35:32.015Z,99210.88
2019-01-26T07:38:00.549Z,99208.32
2019-01-26T07:40:29.466Z,99219.54
2019-01-26T07:42:58.033Z,99224.00
2019-01-26T07:45:26.916Z,99212.31
2019-01-26T07:47:55.452Z,99211.27
2019-01-26T07:50:24.090Z,99214.58
2019-01-26T07:52:52.626Z,99209.83
2019-01-26T07:55:21.162Z,99203.88
2019-01-26T07:57:49.735Z,99209.37
2019-01-26T08:00:20.576Z,99211.64
2019-01-26T08:02:49.115Z,99209.88
2019-01-26T08:05:17.724Z,99207.46
2019-01-26T08:07:46.249Z,99206.22
2019-01-26T08:10:17.375Z,99196.69
2019-01-26T08:12:45.942Z,99201.17
2019-01-26T08:15:16.797Z,99194.77
2019-01-26T08:17:45.422Z,99188.91
2019-01-26T08:20:16.018Z,99195.81
2019-01-26T08:22:44.547Z,99207.01
2019-01-26T08:25:13.173Z,99182.81
2019-01-26T08:27:41.711Z,99180.25
2019-01-26T08:30:21.775Z,99193.97
2019-01-26T08:32:50.415Z,99188.62
2019-01-26T08:35:19.189Z,99187.07
2019-01-26T08:37:47.800Z,99201.20
2019-01-26T08:40:17.404Z,99196.37
2019-01-26T08:42:45.947Z,99197.53
2019-01-26T08:45:14.901Z,99206.63
2019-01-26T08:47:43.656Z,99201.42
2019-01-26T08:50:17.367Z,99199.86
2019-01-26T08:52:46.293Z,99205.00
2019-01-26T08:55:18.279Z,99202.43
2019-01-26T08:57:45.219Z,99202.19
2019-01-26T09:00:19.695Z,99207.09
2019-01-26T09:03:13.464Z,99207.25
2019-01-26T09:05:57.141Z,99203.82
2019-01-26T09:08:25.925Z,99212.45
2019-01-26T09:10:54.818Z,99208.27
2019-01-26T09:13:23.690Z,99203.76
2019-01-26T09:15:52.271Z,99213.63
2019-01-26T09:18:20.812Z,99215.02
2019-01-26T09:20:49.367Z,99224.56
2019-01-26T09:23:17.967Z,99205.36
2019-01-26T09:25:46.551Z,99208.00
2019-01-26T09:28:15.091Z,99209.17
2019-01-26T09:30:43.630Z,99207.26
2019-01-26T09:33:12.210Z,99211.99
2019-01-26T09:35:40.754Z,99214.59
2019-01-26T09:38:09.298Z,99216.48
2019-01-26T09:40:37.855Z,99214.70
2019-01-26T09:43:07.515Z,99208.53
2019-01-26T09:45:36.095Z,99216.30
2019-01-26T09:48:04.882Z,99213.22
2019-01-26T09:50:33.427Z,99214.22
2019-01-26T09:53:02.018Z,99217.61
2019-01-26T09:55:30.586Z,99222.60
2019-01-26T09:57:59.126Z,99211.48
2019-01-26T10:00:27.725Z,99224.85
2019-01-26T10:02:56.254Z,99224.91
2019-01-26T10:05:24.801Z,99222.05
2019-01-26T10:07:53.378Z,99227.56
2019-01-26T10:10:22.307Z,99217.52
2019-01-26T10:12:50.857Z,99220.16
2019-01-26T10:15:19.787Z,99226.87
2019-01-26T10:17:48.402Z,99211.38
2019-01-26T10:20:22.382Z,99213.73
2019-01-26T10:22:50.937Z,99216.14
2019-01-26T10:25:19.514Z,99216.20
2019-01-26T10:27:48.139Z,99209.04
2019-01-26T10:30:21.677Z,99207.81
2019-01-26T10:32:50.236Z,99210.98
2019-01-26T10:35:19.464Z,99207.66
2019-01-26T10:37:48.026Z,99213.86
2019-01-26T10:40:39.474Z,99218.88
2019-01-26T10:43:08.110Z,99216.64
2019-01-26T10:45:36.838Z,99220.36
2019-01-26T10:48:05.770Z,99222.97
2019-01-26T10:50:34.343Z,99220.17
2019-01-26T10:53:02.885Z,99216.14
2019-01-26T10:55:31.526Z,99223.20
2019-01-26T10:58:00.072Z,99209.14
2019-01-26T11:00:29.000Z,99216.27
2019-01-26T11:02:57.544Z,99217.06
2019-01-26T11:05:26.080Z,99211.55
2019-01-26T11:07:54.645Z,99207.09
2019-01-26T11:10:23.251Z,99209.30
2019-01-26T11:12:51.840Z,99217.98
2019-01-26T11:15:20.383Z,99212.34
2019-01-26T11:17:48.929Z,99204.88
2019-01-26T11:20:17.491Z,99215.23
2019-01-26T11:22:46.061Z,99216.06
2019-01-26T11:25:14.670Z,99200.78
2019-01-26T11:27:44.141Z,99203.78
2019-01-26T11:30:12.777Z,99197.75
2019-01-26T11:32:41.310Z,99197.71
2019-01-26T11:35:11.086Z,99194.08
2019-01-26T11:37:39.649Z,99192.99
2019-01-26T11:40:16.483Z,99190.05
2019-01-26T11:42:45.054Z,99195.53
2019-01-26T11:45:38.515Z,99185.69
2019-01-26T11:48:13.176Z,99189.09
2019-01-26T11:50:44.817Z,99179.09
2019-01-26T11:53:13.391Z,99186.28
2019-01-26T11:55:50.739Z,99188.70
2019-01-26T11:58:19.282Z,99182.72
2019-01-26T12:01:06.874Z,99184.11
2019-01-26T12:03:54.434Z,99181.40
2019-01-26T12:06:27.039Z,99163.21
2019-01-26T12:08:55.616Z,99166.70
2019-01-26T12:11:24.221Z,99163.24
2019-01-26T12:13:52.761Z,99174.86
2019-01-26T12:16:26.884Z,99163.64
2019-01-26T12:18:51.601Z,99166.05
2019-01-26T12:21:20.149Z,99163.21
2019-01-26T12:23:48.724Z,99162.55
2019-01-26T12:26:17.267Z,99162.78
2019-01-26T12:28:45.807Z,99165.48
2019-01-26T12:31:14.380Z,99165.55
2019-01-26T12:33:42.921Z,99164.73
2019-01-26T12:36:11.505Z,99160.83
2019-01-26T12:38:40.079Z,99157.92
2019-01-26T12:41:08.622Z,99161.83
2019-01-26T12:43:37.161Z,99162.16
2019-01-26T12:46:05.744Z,99163.96
2019-01-26T12:48:34.290Z,99163.90
2019-01-26T12:51:02.829Z,99161.88
2019-01-26T12:53:31.409Z,99155.15
2019-01-26T12:55:59.945Z,99159.70
2019-01-26T12:58:28.495Z,99160.79
2019-01-26T13:00:57.064Z,99154.75
2019-01-26T13:03:25.628Z,99148.48
2019-01-26T13:05:54.171Z,99155.28
2019-01-26T13:08:22.744Z,99156.61
2019-01-26T13:10:54.723Z,99148.55
2019-01-26T13:13:23.261Z,99142.47
2019-01-26T13:15:51.827Z,99152.73
2019-01-26T13:18:20.410Z,99143.40
2019-01-26T13:20:48.956Z,99129.43
2019-01-26T13:23:17.499Z,99141.19
2019-01-26T13:25:46.065Z,99133.44
2019-01-26T13:28:14.735Z,99128.45
2019-01-26T13:30:43.290Z,99135.81
2019-01-26T13:33:11.833Z,99133.04
2019-01-26T13:35:40.408Z,99130.33
2019-01-26T13:38:09.006Z,99127.53
2019-01-26T13:40:37.605Z,99138.42
2019-01-26T13:43:06.154Z,99134.83
2019-01-26T13:45:34.700Z,99142.61
2019-01-26T13:48:03.294Z,99132.16
2019-01-26T13:50:31.847Z,99142.02
2019-01-26T13:53:00.396Z,99131.69
2019-01-26T13:55:28.980Z,99130.38
2019-01-26T13:57:57.529Z,99133.20
2019-01-26T14:00:28.528Z,99131.36
2019-01-26T14:02:57.106Z,99121.33
2019-01-26T14:05:25.673Z,99123.11
2019-01-26T14:07:54.262Z,99118.62
2019-01-26T14:10:22.840Z,99113.34
2019-01-26T14:12:51.419Z,99115.64
2019-01-26T14:15:20.015Z,99107.59
2019-01-26T14:17:48.572Z,99113.73
2019-01-26T14:20:19.251Z,99112.23
2019-01-26T14:22:47.898Z,99114.48
2019-01-26T14:25:16.648Z,99109.20
2019-01-26T14:27:45.227Z,99118.75
2019-01-26T14:30:22.930Z,99115.22
2019-01-26T14:32:52.619Z,99108.39
2019-01-26T14:35:21.451Z,99116.08
2019-01-26T14:37:49.998Z,99123.34
2019-01-26T14:40:18.608Z,99115.75
2019-01-26T14:42:53.944Z,99099.45
2019-01-26T14:45:17.510Z,99116.48
2019-01-26T14:47:46.094Z,99114.30
2019-01-26T14:50:14.772Z,99111.82
2019-01-26T14:52:43.282Z,99110.11
2019-01-26T14:55:14.535Z,99108.72
2019-01-26T14:57:43.113Z,99101.55
2019-01-26T15:00:21.293Z,99108.66
2019-01-26T15:02:49.905Z,99111.20
2019-01-26T15:05:18.457Z,99100.23
2019-01-26T15:07:46.998Z,99092.75
2019-01-26T15:10:15.586Z,99085.49
2019-01-26T15:12:44.144Z,99098.92
2019-01-26T15:15:12.743Z,99096.45
2019-01-26T15:17:41.351Z,99099.84
2019-01-26T15:20:13.447Z,99098.45
2019-01-26T15:22:42.018Z,99085.72
2019-01-26T15:25:10.602Z,99092.72
2019-01-26T15:27:39.153Z,99084.92
2019-01-26T15:30:15.909Z,99085.32
2019-01-26T15:32:44.461Z,99070.44
2019-01-26T15:35:13.046Z,99073.02
2019-01-26T15:37:41.585Z,99069.81
2019-01-26T15:40:10.280Z,99075.89
2019-01-26T15:42:38.871Z,99062.59
2019-01-26T15:45:11.177Z,99068.42
2019-01-26T15:47:39.770Z,99051.62
2019-01-26T15:50:13.143Z,99065.45
2019-01-26T15:52:39.908Z,99071.23
2019-01-26T15:55:11.248Z,99067.86
2019-01-26T15:57:39.787Z,99072.91
2019-01-26T16:00:12.460Z,99069.98
2019-01-26T16:02:41.009Z,99063.80
2019-01-26T16:05:09.590Z,99065.45
2019-01-26T16:07:38.175Z,99060.17
2019-01-26T16:10:07.516Z,99058.50
2019-01-26T16:12:36.091Z,99051.97
2019-01-26T16:15:05.792Z,99050.47
2019-01-26T16:17:34.333Z,99049.79
2019-01-26T16:20:02.951Z,99054.21
2019-01-26T16:22:31.503Z,99048.59
2019-01-26T16:25:00.057Z,99041.57
2019-01-26T16:27:28.702Z,99042.89
2019-01-26T16:29:57.278Z,99033.84
2019-01-26T16:32:25.832Z,99031.70
2019-01-26T16:34:54.416Z,99031.14
2019-01-26T16:37:22.962Z,99021.84
2019-01-26T16:39:51.514Z,99026.16
2019-01-26T16:42:20.080Z,99020.97
2019-01-26T16:44:48.622Z,99024.27
2019-01-26T16:47:17.204Z,99017.89
2019-01-26T16:49:45.754Z,99004.78
2019-01-26T16:52:14.337Z,99005.13
2019-01-26T16:54:42.899Z,99005.59
2019-01-26T16:57:11.514Z,99005.72
2019-01-26T16:59:40.095Z,98996.97
2019-01-26T17:02:08.641Z,99002.84
2019-01-26T17:04:37.185Z,98995.48
2019-01-26T17:07:05.766Z,99000.50
2019-01-26T17:09:34.306Z,99005.86
2019-01-26T17:12:02.884Z,98994.13
2019-01-26T17:14:31.478Z,98999.00
2019-01-26T17:17:00.018Z,98989.17
2019-01-26T17:19:28.621Z,98986.47
2019-01-26T17:21:57.162Z,98983.78
2019-01-26T17:24:25.708Z,98980.28
2019-01-26T17:26:54.294Z,98980.16
2019-01-26T17:29:22.843Z,98974.21
2019-01-26T17:31:51.392Z,98968.67
2019-01-26T17:34:19.980Z,98969.55
2019-01-26T17:36:48.530Z,98951.12
2019-01-26T17:39:17.073Z,98952.83
2019-01-26T17:41:45.652Z,98943.08
2019-01-26T17:44:14.515Z,98936.13
2019-01-26T17:46:43.325Z,98940.91
2019-01-26T17:49:12.499Z,98931.20
2019-01-26T17:51:41.733Z,98921.53
2019-01-26T17:54:10.288Z,98918.70
2019-01-26T17:56:38.833Z,98919.24
2019-01-26T17:59:07.408Z,98913.08
2019-01-26T18:01:35.956Z,98914.34
2019-01-26T18:04:04.498Z,98909.59
2019-01-26T18:06:33.077Z,98908.27
2019-01-26T18:09:01.669Z,98901.38
2019-01-26T18:11:30.297Z,98901.27
2019-01-26T18:13:58.841Z,98893.46
2019-01-26T18:16:27.386Z,98885.72
2019-01-26T18:18:55.972Z,98881.03
2019-01-26T18:21:24.521Z,98869.45
2019-01-26T18:23:53.091Z,98875.63
2019-01-26T18:26:22.037Z,98864.78
2019-01-26T18:28:50.585Z,98865.07
2019-01-26T18:31:19.165Z,98861.30
2019-01-26T18:33:47.718Z,98851.00
2019-01-26T18:36:16.252Z,98835.20
2019-01-26T18:38:44.831Z,98838.58
2019-01-26T18:41:13.372Z,98848.55
2019-01-26T18:43:41.946Z,98847.91
2019-01-26T18:46:10.487Z,98843.16
2019-01-26T18:48:39.354Z,98841.13
2019-01-26T18:51:07.943Z,98835.86
2019-01-26T18:53:36.480Z,98835.62
2019-01-26T18:56:05.068Z,98828.84
2019-01-26T18:58:33.599Z,98824.53
2019-01-26T19:01:02.139Z,98821.95
2019-01-26T19:03:41.631Z,98816.62
2019-01-26T19:06:10.175Z,98817.65
2019-01-26T19:08:38.719Z,98806.01
2019-01-26T19:11:07.300Z,98804.98
2019-01-26T19:13:35.867Z,98802.63
2019-01-26T19:16:04.934Z,98793.11
2019-01-26T19:18:33.517Z,98790.33
2019-01-26T19:21:03.248Z,98786.40
2019-01-26T19:23:32.188Z,98782.73
2019-01-26T19:26:00.765Z,98773.92
2019-01-26T19:28:29.305Z,98766.85
2019-01-26T19:30:57.905Z,98770.14
2019-01-26T19:33:26.452Z,98762.89
2019-01-26T19:35:54.998Z,98758.09
2019-01-26T19:38:23.581Z,98756.22
2019-01-26T19:40:52.133Z,98760.86
2019-01-26T19:43:20.709Z,98753.66
2019-01-26T19:45:49.598Z,98753.78
2019-01-26T19:48:18.211Z,98754.48
2019-01-26T19:50:46.757Z,98753.95
2019-01-26T19:53:15.301Z,98739.16
2019-01-26T19:55:44.447Z,98738.38
2019-01-26T19:58:13.071Z,98735.38
2019-01-26T20:00:41.635Z,98735.56
2019-01-26T20:03:10.209Z,98729.12
2019-01-26T20:05:38.748Z,98732.08
2019-01-26T20:08:07.622Z,98728.52
2019-01-26T20:10:36.246Z,98721.13
2019-01-26T20:13:04.853Z,98718.81
2019-01-26T20:15:33.428Z,98708.84
2019-01-26T20:18:01.970Z,98711.92
2019-01-26T20:20:32.555Z,98701.67
2019-01-26T20:23:01.097Z,98699.80
2019-01-26T20:25:29.672Z,98698.72
2019-01-26T20:27:58.218Z,98688.41
2019-01-26T20:30:28.782Z,98688.80
2019-01-26T20:32:57.513Z,98688.59
2019-01-26T20:35:26.114Z,98676.03
2019-01-26T20:37:54.740Z,98680.56
2019-01-26T20:40:23.279Z,98680.16
2019-01-26T20:42:51.853Z,98671.81
2019-01-26T20:45:22.666Z,98660.69
2019-01-26T20:47:51.205Z,98658.40
2019-01-26T20:50:19.852Z,98654.04
2019-01-26T20:52:48.427Z,98654.45
2019-01-26T20:55:16.973Z,98646.73
2019-01-26T20:57:45.517Z,98640.38
2019-01-26T21:00:20.246Z,98636.83
2019-01-26T21:02:48.819Z,98632.00
2019-01-26T21:05:17.398Z,98630.08
2019-01-26T21:07:45.940Z,98619.30
2019-01-26T21:10:23.292Z,98619.19
2019-01-26T21:12:51.963Z,98615.88
2019-01-26T21:15:20.594Z,98605.40
2019-01-26T21:17:49.152Z,98601.16
2019-01-26T21:20:18.726Z,98601.92
2019-01-26T21:22:47.317Z,98594.20
2019-01-26T21:25:15.863Z,98594.75
2019-01-26T21:27:44.406Z,98586.25
2019-01-26T21:30:18.420Z,98594.12
2019-01-26T21:32:46.985Z,98592.28
2019-01-26T21:35:15.521Z,98578.17
2019-01-26T21:37:44.181Z,98573.98
2019-01-26T21:40:39.778Z,98576.91
2019-01-26T21:43:08.351Z,98570.96
2019-01-26T21:45:36.890Z,98568.53
2019-01-26T21:48:05.460Z,98570.09
2019-01-26T21:50:34.005Z,98561.58
2019-01-26T21:53:02.542Z,98553.78
2019-01-26T21:55:31.116Z,98555.05
2019-01-26T21:57:59.680Z,98547.20
2019-01-26T22:00:30.482Z,98547.25
2019-01-26T22:02:59.023Z,98548.77
2019-01-26T22:05:27.590Z,98544.33
2019-01-26T22:07:56.130Z,98542.00
2019-01-26T22:10:24.689Z,98540.67
2019-01-26T22:12:53.255Z,98539.84
2019-01-26T22:15:22.632Z,98527.75
2019-01-26T22:17:51.203Z,98536.73
2019-01-26T22:20:21.433Z,98527.50
2019-01-26T22:22:50.139Z,98526.17
2019-01-26T22:25:19.404Z,98521.70
2019-01-26T22:27:47.977Z,98518.53
2019-01-26T22:30:19.361Z,98506.92
2019-01-26T22:32:47.909Z,98507.63
2019-01-26T22:35:16.739Z,98505.42
2019-01-26T22:37:45.841Z,98500.89
2019-01-26T22:40:17.469Z,98503.34
2019-01-26T22:42:46.044Z,98490.09
2019-01-26T22:45:14.586Z,98491.30
2019-01-26T22:47:43.123Z,98486.71
2019-01-26T22:50:12.971Z,98475.63
2019-01-26T22:52:41.625Z,98473.73
2019-01-26T22:55:11.138Z,98467.07
2019-01-26T22:57:39.710Z,98461.75
2019-01-26T23:00:27.808Z,98457.27
2019-01-26T23:02:56.392Z,98449.12
2019-01-26T23:06:03.571Z,98437.72
2019-01-26T23:08:32.152Z,98440.16
2019-01-26T23:11:14.768Z,98430.53
2019-01-26T23:14:52.180Z,98434.59
2019-01-26T23:17:53.603Z,98424.30
2019-01-26T23:20:41.206Z,98413.77
2019-01-26T23:23:49.771Z,98413.84
2019-01-26T23:26:47.901Z,98397.54
2019-01-26T23:29:47.051Z,98395.16
2019-01-26T23:32:15.584Z,98381.58
2019-01-26T23:34:44.123Z,98381.81
2019-01-26T23:37:12.689Z,98367.52
2019-01-26T23:39:41.230Z,98365.80
2019-01-26T23:42:10.098Z,98364.67
2019-01-26T23:44:38.643Z,98360.56
2019-01-26T23:47:07.223Z,98349.52
2019-01-26T23:49:35.779Z,98340.99
2019-01-26T23:52:04.350Z,98329.22
2019-01-26T23:54:32.916Z,98331.16
2019-01-26T23:57:01.459Z,98321.58
2019-01-26T23:59:30.028Z,98325.59
